createdAt,value
2023-04-05T00:00:01.719Z,17.07
2023-04-05T00:02:31.321Z,13.57
2023-04-05T00:05:00.541Z,16.27
2023-04-05T00:07:28.176Z,16.73
2023-04-05T00:09:55.652Z,16.23
2023-04-05T00:12:23.130Z,15.17
2023-04-05T00:14:51.942Z,14.50
2023-04-05T00:17:19.511Z,17.50
2023-04-05T00:19:51.573Z,17.43
2023-04-05T00:22:25.920Z,16.63
2023-04-05T00:24:53.452Z,15.83
2023-04-05T00:27:21.250Z,18.63
2023-04-05T00:29:48.797Z,20.57
2023-04-05T00:32:17.648Z,14.70
2023-04-05T00:34:45.136Z,9.73
2023-04-05T00:37:12.861Z,10.37
2023-04-05T00:39:40.438Z,9.60
2023-04-05T00:42:09.096Z,7.90
2023-04-05T00:44:37.072Z,7.50
2023-04-05T00:47:05.730Z,5.90
2023-04-05T00:49:36.506Z,7.60
2023-04-05T00:52:05.147Z,8.40
2023-04-05T00:54:32.761Z,7.30
2023-04-05T00:57:00.825Z,7.43
2023-04-05T00:59:29.899Z,6.63
2023-04-05T01:02:02.617Z,6.53
2023-04-05T01:04:33.628Z,7.60
2023-04-05T01:07:08.844Z,6.30
2023-04-05T01:09:46.583Z,9.13
2023-04-05T01:12:18.655Z,7.90
2023-04-05T01:14:49.939Z,10.80
2023-04-05T01:17:21.957Z,9.20
2023-04-05T01:19:53.223Z,10.93
2023-04-05T01:22:56.980Z,9.33
2023-04-05T01:25:44.925Z,9.67
2023-04-05T01:28:41.363Z,8.23
2023-04-05T01:31:19.166Z,9.23
2023-04-05T01:33:56.379Z,11.13
2023-04-05T01:36:32.690Z,9.93
2023-04-05T01:39:03.116Z,9.87
2023-04-05T01:41:31.071Z,9.30
2023-04-05T01:43:58.551Z,9.30
2023-04-05T01:46:27.454Z,9.87
2023-04-05T01:48:54.937Z,8.80
2023-04-05T01:51:22.438Z,6.27
2023-04-05T01:53:50.002Z,7.47
2023-04-05T01:56:17.524Z,7.83
2023-04-05T01:58:45.070Z,9.20
2023-04-05T02:01:12.566Z,9.33
2023-04-05T02:03:41.551Z,10.13
2023-04-05T02:06:09.130Z,9.10
2023-04-05T02:08:36.599Z,9.33
2023-04-05T02:11:04.094Z,8.47
2023-04-05T02:13:31.556Z,7.10
2023-04-05T02:15:59.039Z,6.80
2023-04-05T02:18:31.415Z,12.17
2023-04-05T02:21:04.939Z,8.80
2023-04-05T02:23:33.432Z,9.07
2023-04-05T02:26:00.984Z,9.30
2023-04-05T02:28:28.540Z,10.77
2023-04-05T02:30:56.830Z,10.47
2023-04-05T02:33:24.367Z,9.37
2023-04-05T02:35:53.749Z,10.63
2023-04-05T02:38:22.746Z,9.90
2023-04-05T02:40:50.706Z,9.67
2023-04-05T02:43:18.349Z,10.13
2023-04-05T02:45:46.951Z,11.07
2023-04-05T02:48:14.823Z,10.73
2023-04-05T02:50:42.682Z,9.70
2023-04-05T02:53:11.042Z,10.37
2023-04-05T02:55:42.012Z,10.60
2023-04-05T02:58:09.651Z,9.50
2023-04-05T03:00:38.273Z,8.67
2023-04-05T03:03:06.104Z,9.90
2023-04-05T03:05:33.622Z,8.87
2023-04-05T03:08:02.276Z,8.47
2023-04-05T03:10:34.878Z,8.97
2023-04-05T03:13:03.690Z,8.57
2023-04-05T03:15:33.262Z,10.13
2023-04-05T03:18:00.746Z,9.33
2023-04-05T03:20:28.278Z,9.27
2023-04-05T03:22:56.216Z,9.43
2023-04-05T03:25:25.471Z,9.63
2023-04-05T03:27:53.780Z,9.33
2023-04-05T03:30:23.090Z,7.47
2023-04-05T03:32:50.796Z,10.20
2023-04-05T03:35:19.230Z,6.20
2023-04-05T03:37:46.983Z,6.03
2023-04-05T03:40:14.763Z,8.47
2023-04-05T03:42:42.209Z,10.00
2023-04-05T03:45:10.398Z,6.70
2023-04-05T03:47:39.503Z,8.03
2023-04-05T03:50:08.626Z,8.57
2023-04-05T03:52:36.079Z,8.43
2023-04-05T03:55:03.946Z,7.60
2023-04-05T03:57:31.809Z,10.80
2023-04-05T03:59:59.266Z,6.60
2023-04-05T04:02:26.801Z,8.23
2023-04-05T04:04:55.715Z,7.90
2023-04-05T04:07:23.235Z,7.97
2023-04-05T04:09:50.708Z,8.57
2023-04-05T04:12:18.150Z,11.37
2023-04-05T04:14:45.711Z,8.47
2023-04-05T04:17:13.158Z,9.17
2023-04-05T04:19:40.613Z,10.73
2023-04-05T04:22:10.138Z,9.07
2023-04-05T04:24:37.625Z,9.57
2023-04-05T04:27:06.851Z,7.60
2023-04-05T04:29:38.971Z,8.80
2023-04-05T04:32:07.941Z,8.67
2023-04-05T04:34:35.506Z,6.93
2023-04-05T04:37:03.896Z,9.13
2023-04-05T04:39:32.765Z,7.97
2023-04-05T04:42:01.306Z,10.27
2023-04-05T04:44:31.219Z,10.10
2023-04-05T04:46:58.703Z,11.03
2023-04-05T04:49:26.154Z,11.23
2023-04-05T04:51:53.630Z,11.30
2023-04-05T04:54:22.121Z,11.50
2023-04-05T04:56:50.916Z,10.07
2023-04-05T04:59:18.466Z,9.30
2023-04-05T05:01:46.560Z,9.43
2023-04-05T05:04:14.069Z,8.77
2023-04-05T05:06:41.528Z,9.63
2023-04-05T05:09:09.051Z,10.57
2023-04-05T05:11:36.537Z,10.10
2023-04-05T05:14:05.387Z,18.13
2023-04-05T05:16:33.593Z,16.80
2023-04-05T05:19:01.456Z,14.80
2023-04-05T05:21:28.985Z,15.03
2023-04-05T05:23:56.420Z,11.73
2023-04-05T05:26:23.876Z,7.50
2023-04-05T05:28:51.298Z,15.00
2023-04-05T05:31:20.121Z,12.80
2023-04-05T05:33:49.898Z,9.93
2023-04-05T05:36:19.646Z,12.27
2023-04-05T05:38:47.610Z,9.70
2023-04-05T05:41:15.322Z,6.13
2023-04-05T05:43:42.758Z,6.77
2023-04-05T05:46:10.503Z,12.07
2023-04-05T05:48:39.367Z,13.70
2023-04-05T05:51:09.793Z,11.40
2023-04-05T05:53:38.037Z,9.23
2023-04-05T05:56:05.987Z,5.90
2023-04-05T05:58:33.751Z,5.47
2023-04-05T06:01:01.246Z,7.20
2023-04-05T06:03:29.801Z,5.17
2023-04-05T06:06:03.025Z,4.23
2023-04-05T06:08:30.522Z,5.53
2023-04-05T06:10:57.973Z,5.23
2023-04-05T06:13:25.630Z,7.10
2023-04-05T06:15:53.170Z,5.20
2023-04-05T06:18:21.454Z,3.77
2023-04-05T06:20:48.959Z,4.30
2023-04-05T06:23:17.724Z,5.20
2023-04-05T06:25:45.751Z,6.27
2023-04-05T06:28:13.207Z,4.83
2023-04-05T06:30:40.973Z,6.07
2023-04-05T06:33:08.879Z,7.13
2023-04-05T06:35:36.407Z,5.37
2023-04-05T06:38:03.883Z,5.93
2023-04-05T06:40:32.713Z,5.47
2023-04-05T06:43:00.240Z,4.60
2023-04-05T06:45:27.831Z,5.67
2023-04-05T06:47:55.306Z,4.13
2023-04-05T06:50:22.809Z,6.27
2023-04-05T06:52:50.308Z,7.37
2023-04-05T06:55:17.942Z,5.03
2023-04-05T06:57:46.800Z,3.80
2023-04-05T07:00:16.102Z,6.17
2023-04-05T07:02:43.878Z,4.93
2023-04-05T07:05:12.557Z,3.97
2023-04-05T07:07:42.411Z,5.57
2023-04-05T07:10:10.800Z,4.43
2023-04-05T07:12:38.547Z,4.43
2023-04-05T07:15:08.773Z,4.67
2023-04-05T07:17:36.440Z,6.23
2023-04-05T07:20:06.574Z,7.10
2023-04-05T07:22:34.260Z,5.90
2023-04-05T07:25:02.421Z,4.40
2023-04-05T07:27:30.293Z,3.77
2023-04-05T07:29:57.882Z,4.10
2023-04-05T07:32:26.827Z,4.30
2023-04-05T07:34:54.422Z,4.80
2023-04-05T07:37:21.867Z,3.63
2023-04-05T07:39:49.318Z,5.77
2023-04-05T07:42:17.850Z,6.60
2023-04-05T07:44:45.463Z,5.53
2023-04-05T07:47:12.917Z,3.77
2023-04-05T07:49:41.918Z,4.50
2023-04-05T07:52:09.385Z,3.67
2023-04-05T07:54:39.497Z,4.03
2023-04-05T07:57:07.298Z,4.13
2023-04-05T07:59:35.288Z,4.63
2023-04-05T08:02:13.841Z,6.40
2023-04-05T08:04:43.608Z,6.87
2023-04-05T08:07:11.190Z,11.40
2023-04-05T08:09:38.687Z,12.20
2023-04-05T08:12:06.753Z,16.23
2023-04-05T08:14:34.265Z,17.73
2023-04-05T08:17:01.749Z,23.00
2023-04-05T08:19:29.283Z,21.57
2023-04-05T08:21:58.074Z,23.13
2023-04-05T08:24:25.689Z,29.17
2023-04-05T08:26:53.205Z,30.63
2023-04-05T08:29:20.773Z,32.43
2023-04-05T08:31:48.324Z,33.80
2023-04-05T08:34:15.796Z,36.83
2023-04-05T08:36:43.291Z,33.47
2023-04-05T08:39:12.805Z,28.15
2023-04-05T08:41:42.968Z,24.77
2023-04-05T08:44:11.402Z,31.02
2023-04-05T08:46:39.566Z,22.80
2023-04-05T08:49:08.398Z,31.55
2023-04-05T08:51:39.085Z,27.05
2023-04-05T08:54:06.633Z,27.15
2023-04-05T08:56:36.852Z,25.58
2023-04-05T08:59:06.190Z,30.85
2023-04-05T09:01:35.004Z,30.02
2023-04-05T09:04:06.348Z,30.98
2023-04-05T09:06:34.177Z,31.60
2023-04-05T09:09:01.885Z,32.38
2023-04-05T09:11:29.360Z,33.70
2023-04-05T09:13:58.161Z,31.70
2023-04-05T09:16:27.355Z,35.05
2023-04-05T09:18:54.834Z,33.38
2023-04-05T09:21:23.414Z,36.65
2023-04-05T09:23:53.873Z,30.77
2023-04-05T09:26:22.427Z,37.25
2023-04-05T09:28:50.126Z,38.63
2023-04-05T09:31:32.731Z,35.53
2023-04-05T09:34:01.800Z,40.90
2023-04-05T09:36:29.372Z,33.27
2023-04-05T09:39:06.689Z,27.30
2023-04-05T09:41:34.612Z,35.45
2023-04-05T09:44:02.598Z,35.47
2023-04-05T09:46:33.915Z,33.23
2023-04-05T09:49:03.711Z,29.37
2023-04-05T09:51:35.666Z,33.23
2023-04-05T09:54:04.945Z,32.85
2023-04-05T09:56:35.688Z,32.10
2023-04-05T09:59:07.106Z,37.47
2023-04-05T10:01:36.734Z,34.45
2023-04-05T10:04:05.631Z,34.35
2023-04-05T10:06:37.056Z,37.90
2023-04-05T10:09:05.485Z,41.90
2023-04-05T10:11:33.981Z,46.00
2023-04-05T10:14:03.766Z,40.35
2023-04-05T10:16:36.110Z,40.80
2023-04-05T10:19:09.138Z,42.27
2023-04-05T10:21:43.112Z,42.20
2023-04-05T10:24:19.910Z,41.97
2023-04-05T10:27:00.939Z,42.17
2023-04-05T10:29:36.686Z,39.70
2023-04-05T10:32:14.853Z,37.83
2023-04-05T10:34:51.888Z,39.37
2023-04-05T10:37:27.446Z,40.28
2023-04-05T10:39:57.612Z,37.63
2023-04-05T10:42:28.533Z,39.15
2023-04-05T10:45:00.960Z,42.22
2023-04-05T10:47:32.511Z,40.55
2023-04-05T10:50:06.750Z,41.05
2023-04-05T10:52:35.224Z,36.22
2023-04-05T10:55:04.581Z,42.13
2023-04-05T10:57:32.864Z,39.50
2023-04-05T11:00:02.228Z,36.60
2023-04-05T11:02:30.754Z,40.95
2023-04-05T11:04:59.158Z,39.63
2023-04-05T11:07:43.958Z,38.90
2023-04-05T11:10:18.110Z,35.28
2023-04-05T11:13:05.246Z,27.58
2023-04-05T11:15:34.640Z,22.60
2023-04-05T11:18:07.342Z,36.38
2023-04-05T11:20:43.601Z,37.92
2023-04-05T11:23:13.646Z,34.55
2023-04-05T11:25:41.942Z,34.40
2023-04-05T11:28:09.852Z,32.03
2023-04-05T11:30:47.929Z,34.35
2023-04-05T11:33:37.168Z,36.15
2023-04-05T11:36:05.482Z,36.13
2023-04-05T11:38:34.534Z,22.52
2023-04-05T11:41:13.074Z,21.77
2023-04-05T11:43:42.400Z,21.98
2023-04-05T11:46:09.997Z,20.23
2023-04-05T11:48:37.562Z,29.02
2023-04-05T11:51:09.456Z,27.30
2023-04-05T11:53:38.961Z,24.92
2023-04-05T11:56:12.824Z,17.45
2023-04-05T11:58:40.778Z,20.02
2023-04-05T12:01:08.777Z,12.90
2023-04-05T12:03:37.129Z,21.50
2023-04-05T12:06:06.338Z,20.65
2023-04-05T12:08:42.685Z,21.95
2023-04-05T12:11:11.544Z,17.90
2023-04-05T12:13:40.430Z,20.85
2023-04-05T12:16:09.757Z,15.85
2023-04-05T12:18:38.588Z,17.10
2023-04-05T12:21:09.859Z,13.10
2023-04-05T12:23:38.134Z,9.27
2023-04-05T12:26:08.046Z,11.85
2023-04-05T12:28:51.047Z,10.05
2023-04-05T12:31:18.641Z,6.57
2023-04-05T12:33:46.599Z,7.40
2023-04-05T12:36:15.934Z,4.82
2023-04-05T12:38:43.440Z,6.28
2023-04-05T12:41:12.470Z,5.00
2023-04-05T12:43:41.028Z,4.85
2023-04-05T12:46:12.335Z,2.80
2023-04-05T12:48:39.821Z,3.08
2023-04-05T12:51:16.632Z,2.97
2023-04-05T12:53:46.912Z,5.22
2023-04-05T12:56:17.065Z,3.95
2023-04-05T12:58:44.703Z,6.57
2023-04-05T13:01:12.811Z,8.00
2023-04-05T13:03:40.410Z,12.23
2023-04-05T13:06:08.198Z,13.40
2023-04-05T13:08:35.962Z,19.63
2023-04-05T13:11:03.407Z,34.00
2023-04-05T13:13:34.201Z,36.97
2023-04-05T13:16:01.719Z,36.33
2023-04-05T13:18:29.209Z,29.52
2023-04-05T13:20:56.727Z,31.27
2023-04-05T13:23:24.200Z,33.13
2023-04-05T13:25:51.688Z,22.67
2023-04-05T13:28:19.182Z,22.27
2023-04-05T13:30:49.134Z,27.48
2023-04-05T13:33:18.581Z,25.38
2023-04-05T13:35:46.170Z,24.42
2023-04-05T13:38:13.631Z,23.25
2023-04-05T13:40:41.159Z,24.00
2023-04-05T13:43:09.254Z,17.77
2023-04-05T13:45:37.643Z,17.33
2023-04-05T13:48:06.752Z,15.18
2023-04-05T13:50:34.278Z,8.75
2023-04-05T13:53:01.822Z,8.40
2023-04-05T13:55:29.299Z,7.32
2023-04-05T13:57:56.748Z,9.73
2023-04-05T14:00:24.463Z,11.27
2023-04-05T14:02:52.985Z,15.25
2023-04-05T14:05:22.165Z,25.17
2023-04-05T14:07:50.295Z,31.58
2023-04-05T14:10:19.586Z,38.40
2023-04-05T14:12:47.032Z,36.73
2023-04-05T14:15:14.511Z,33.10
2023-04-05T14:17:42.235Z,34.67
2023-04-05T14:20:10.351Z,35.20
2023-04-05T14:22:39.151Z,41.67
2023-04-05T14:25:08.250Z,35.40
2023-04-05T14:27:41.130Z,35.35
2023-04-05T14:30:09.915Z,34.45
2023-04-05T14:32:37.441Z,27.05
2023-04-05T14:35:05.293Z,20.63
2023-04-05T14:37:32.742Z,17.13
2023-04-05T14:40:01.546Z,14.25
2023-04-05T14:42:40.990Z,24.25
2023-04-05T14:45:13.327Z,23.90
2023-04-05T14:47:40.820Z,28.65
2023-04-05T14:50:08.960Z,27.90
2023-04-05T14:52:37.296Z,30.23
2023-04-05T14:55:06.443Z,36.50
2023-04-05T14:57:33.910Z,45.97
2023-04-05T15:00:01.355Z,36.67
2023-04-05T15:02:29.329Z,40.37
2023-04-05T15:05:00.296Z,35.40
2023-04-05T15:07:28.033Z,36.60
2023-04-05T15:09:55.654Z,34.43
2023-04-05T15:12:24.709Z,36.03
2023-04-05T15:14:54.214Z,36.10
2023-04-05T15:17:22.061Z,34.93
2023-04-05T15:19:49.557Z,37.30
2023-04-05T15:22:17.634Z,36.20
2023-04-05T15:24:45.267Z,41.10
2023-04-05T15:27:13.188Z,40.00
2023-04-05T15:29:42.100Z,35.47
2023-04-05T15:32:09.572Z,35.63
2023-04-05T15:34:37.029Z,32.73
2023-04-05T15:37:04.529Z,37.03
2023-04-05T15:39:32.023Z,36.57
2023-04-05T15:41:59.650Z,28.83
2023-04-05T15:44:27.338Z,32.03
2023-04-05T15:46:56.233Z,33.53
2023-04-05T15:49:23.742Z,37.15
2023-04-05T15:51:51.300Z,32.47
2023-04-05T15:54:20.796Z,33.95
2023-04-05T15:56:48.733Z,31.92
2023-04-05T15:59:16.220Z,33.00
2023-04-05T16:01:44.086Z,30.52
2023-04-05T16:04:13.033Z,31.00
2023-04-05T16:06:40.739Z,34.13
2023-04-05T16:09:08.205Z,31.52
2023-04-05T16:11:35.779Z,33.17
2023-04-05T16:14:03.868Z,29.02
2023-04-05T16:16:38.782Z,33.50
2023-04-05T16:19:14.657Z,36.33
2023-04-05T16:21:42.534Z,36.80
2023-04-05T16:24:10.037Z,36.67
2023-04-05T16:26:37.485Z,37.17
2023-04-05T16:29:05.381Z,39.33
2023-04-05T16:31:33.631Z,32.57
2023-04-05T16:34:01.557Z,35.73
2023-04-05T16:36:30.590Z,34.60
2023-04-05T16:38:58.103Z,33.17
2023-04-05T16:41:25.650Z,35.07
2023-04-05T16:43:53.189Z,35.00
2023-04-05T16:46:20.756Z,34.13
2023-04-05T16:48:48.359Z,36.53
2023-04-05T16:51:16.119Z,35.33
2023-04-05T16:53:44.951Z,35.33
2023-04-05T16:56:12.419Z,34.80
2023-04-05T16:58:39.886Z,37.88
2023-04-05T17:01:07.488Z,35.60
2023-04-05T17:03:34.993Z,35.97
2023-04-05T17:06:02.723Z,33.37
2023-04-05T17:08:30.210Z,35.00
2023-04-05T17:10:59.137Z,37.37
2023-04-05T17:13:26.642Z,35.23
2023-04-05T17:15:54.154Z,33.28
2023-04-05T17:18:21.653Z,33.35
2023-04-05T17:20:49.107Z,33.40
2023-04-05T17:23:16.616Z,36.77
2023-04-05T17:25:44.064Z,35.50
2023-04-05T17:28:13.752Z,41.17
2023-04-05T17:30:41.210Z,38.23
2023-04-05T17:33:08.784Z,34.63
2023-04-05T17:35:36.656Z,31.30
2023-04-05T17:38:04.416Z,24.57
2023-04-05T17:40:32.006Z,17.37
2023-04-05T17:42:59.435Z,5.70
2023-04-05T17:45:28.451Z,4.07
2023-04-05T17:47:56.193Z,7.03
2023-04-05T17:50:24.938Z,5.40
2023-04-05T17:52:52.554Z,3.80
2023-04-05T17:55:20.052Z,5.37
2023-04-05T17:57:47.508Z,6.53
2023-04-05T18:00:16.029Z,11.73
2023-04-05T18:02:45.728Z,16.27
2023-04-05T18:05:13.469Z,9.83
2023-04-05T18:07:42.457Z,9.93
2023-04-05T18:10:10.634Z,11.00
2023-04-05T18:12:38.140Z,13.63
2023-04-05T18:15:06.377Z,13.20
2023-04-05T18:17:33.939Z,9.03
2023-04-05T18:20:03.562Z,10.87
2023-04-05T18:22:32.389Z,15.37
2023-04-05T18:24:59.847Z,20.87
2023-04-05T18:27:27.308Z,19.80
2023-04-05T18:29:54.774Z,14.40
2023-04-05T18:32:22.419Z,10.40
2023-04-05T18:34:50.075Z,9.60
2023-04-05T18:37:18.892Z,7.73
2023-04-05T18:39:46.347Z,11.83
2023-04-05T18:42:13.828Z,15.90
2023-04-05T18:44:41.339Z,17.37
2023-04-05T18:47:08.852Z,15.03
2023-04-05T18:49:37.064Z,12.97
2023-04-05T18:52:04.605Z,15.93
2023-04-05T18:54:33.444Z,17.83
2023-04-05T18:57:00.947Z,11.50
2023-04-05T18:59:29.289Z,6.07
2023-04-05T19:01:56.981Z,4.70
2023-04-05T19:04:24.507Z,4.70
2023-04-05T19:06:51.984Z,5.83
2023-04-05T19:09:20.114Z,6.20
2023-04-05T19:11:48.945Z,7.67
2023-04-05T19:14:16.689Z,8.10
2023-04-05T19:16:44.176Z,8.47
2023-04-05T19:19:11.752Z,9.93
2023-04-05T19:21:39.237Z,9.17
2023-04-05T19:24:09.633Z,8.90
2023-04-05T19:26:37.933Z,8.93
2023-04-05T19:29:06.985Z,7.67
2023-04-05T19:31:34.905Z,9.30
2023-04-05T19:34:02.422Z,10.90
2023-04-05T19:36:29.889Z,10.43
2023-04-05T19:38:57.433Z,10.10
2023-04-05T19:41:25.978Z,7.87
2023-04-05T19:43:53.447Z,7.53
2023-04-05T19:46:22.979Z,7.53
2023-04-05T19:48:50.497Z,7.23
2023-04-05T19:51:20.250Z,7.37
2023-04-05T19:53:49.110Z,7.93
2023-04-05T19:56:20.203Z,9.70
2023-04-05T19:58:49.153Z,22.07
2023-04-05T20:01:34.742Z,11.27
2023-04-05T20:04:03.252Z,14.20
2023-04-05T20:06:33.701Z,15.27
2023-04-05T20:09:03.627Z,13.07
2023-04-05T20:11:31.539Z,12.37
2023-04-05T20:14:01.778Z,9.50
2023-04-05T20:16:32.469Z,8.23
2023-04-05T20:19:02.837Z,8.97
2023-04-05T20:21:30.887Z,11.83
2023-04-05T20:23:58.697Z,10.67
2023-04-05T20:26:28.974Z,13.23
2023-04-05T20:28:57.561Z,9.27
2023-04-05T20:31:26.508Z,8.77
2023-04-05T20:33:57.896Z,9.87
2023-04-05T20:36:32.945Z,8.60
2023-04-05T20:39:01.209Z,8.40
2023-04-05T20:41:29.668Z,9.13
2023-04-05T20:43:57.383Z,8.37
2023-04-05T20:46:26.106Z,8.20
2023-04-05T20:48:57.146Z,7.77
2023-04-05T20:51:24.940Z,8.03
2023-04-05T20:53:52.578Z,8.10
2023-04-05T20:56:20.060Z,9.37
2023-04-05T20:58:47.701Z,7.87
2023-04-05T21:01:15.584Z,9.27
2023-04-05T21:03:43.535Z,7.90
2023-04-05T21:06:12.475Z,8.77
2023-04-05T21:08:41.392Z,7.57
2023-04-05T21:11:10.726Z,8.33
2023-04-05T21:13:39.055Z,8.13
2023-04-05T21:16:06.997Z,9.10
2023-04-05T21:18:34.668Z,9.00
2023-04-05T21:21:02.179Z,9.30
2023-04-05T21:23:32.743Z,8.60
2023-04-05T21:26:01.614Z,8.77
2023-04-05T21:28:29.092Z,8.00
2023-04-05T21:30:56.591Z,6.77
2023-04-05T21:33:24.191Z,8.33
2023-04-05T21:35:51.746Z,7.97
2023-04-05T21:38:19.491Z,9.47
2023-04-05T21:40:50.057Z,9.13
2023-04-05T21:43:17.613Z,9.10
2023-04-05T21:45:45.828Z,9.63
2023-04-05T21:48:13.387Z,18.03
2023-04-05T21:50:40.896Z,14.70
2023-04-05T21:53:09.663Z,8.23
2023-04-05T21:55:37.220Z,18.10
2023-04-05T21:58:06.194Z,27.13
2023-04-05T22:00:33.682Z,20.47
2023-04-05T22:03:01.242Z,37.70
2023-04-05T22:05:37.272Z,53.60
2023-04-05T22:08:07.315Z,14.63
2023-04-05T22:10:35.936Z,127.03
2023-04-05T22:13:03.448Z,142.03
2023-04-05T22:15:32.262Z,152.50
2023-04-05T22:17:59.941Z,145.60
2023-04-05T22:20:27.453Z,143.63
2023-04-05T22:22:55.834Z,157.00
2023-04-05T22:25:23.320Z,138.20
2023-04-05T22:27:50.787Z,155.30
2023-04-05T22:30:18.292Z,148.73
2023-04-05T22:32:47.677Z,158.83
2023-04-05T22:35:15.301Z,159.10
2023-04-05T22:37:42.789Z,154.40
2023-04-05T22:40:11.634Z,140.40
2023-04-05T22:42:41.871Z,151.77
2023-04-05T22:45:10.464Z,147.70
2023-04-05T22:47:38.142Z,145.80
2023-04-05T22:50:08.222Z,152.93
2023-04-05T22:52:35.777Z,148.87
2023-04-05T22:55:04.316Z,141.07
2023-04-05T22:57:32.402Z,154.80
2023-04-05T22:59:59.888Z,89.87
2023-04-05T23:02:29.355Z,68.97
2023-04-05T23:04:57.165Z,85.20
2023-04-05T23:07:26.473Z,10.33
2023-04-05T23:09:53.948Z,127.50
2023-04-05T23:12:21.517Z,158.43
2023-04-05T23:14:48.983Z,150.40
2023-04-05T23:17:16.696Z,162.27
2023-04-05T23:19:44.331Z,158.27
2023-04-05T23:22:11.797Z,166.80
2023-04-05T23:24:40.584Z,169.23
2023-04-05T23:27:08.092Z,145.87
2023-04-05T23:29:35.978Z,176.03
2023-04-05T23:32:03.473Z,156.50
2023-04-05T23:34:30.958Z,152.73
2023-04-05T23:36:58.444Z,143.73
2023-04-05T23:39:25.958Z,166.33
2023-04-05T23:41:54.834Z,150.70
2023-04-05T23:44:22.323Z,157.70
2023-04-05T23:46:49.795Z,134.10
2023-04-05T23:49:17.318Z,74.17
2023-04-05T23:51:44.843Z,56.33
2023-04-05T23:54:12.561Z,52.77
2023-04-05T23:56:40.036Z,67.93
2023-04-05T23:59:09.095Z,72.53
